Jard de Guamani, Puerto Rico
Current Conditions -  °F | °C
As of 11:56 PM on Tuesday 21 Oct 2014 (Local Time) from TJSJ Reporting Station
Scattered Clouds Scattered Clouds  
Wind Chill: 81°   Ceiling: Unl
Heat Index: 87°   Visibility: 10mi
Dew Point: 75°   Wind: 3mph
Humidity: 82%   Direction: 90°E
Pressure: 29.98"   Gusts: NA
Location:  17.9849°N, 66.1175°W
Report Text: TJSJ 220356Z 09003KT 10SM FEW033 SCT070 27/24 A2998 RMK AO2 SLP150 T02720239 403170256
Loading
Personal Weather Stations






























Interactive Weather Map
Tropical Storm Tracking
New forecast layout! Learn more

10-Day Weather Forecast

Advertisements
Track Severe Weather on mobile